Alamillo, New Mexico
Current Conditions -  °F | °C
As of 3:35 AM on Saturday 25 Oct 2014 (Local Time) from KONM Reporting Station
Clear Clear  
Wind Chill: 47°   Ceiling: Unl
Heat Index: 49°   Visibility: 10mi
Dew Point: 42°   Wind: 6mph
Humidity: 77%   Direction: 300°WNW
Pressure: 30.26"   Gusts: NA
Location:  34.262°N, 106.87°W
Report Text: KONM 250935Z AUTO 30005KT 10SM CLR 10/06 A3026 RMK AO2 T00960057
Loading
Personal Weather Stations






























Interactive Weather Map
Tropical Storm Tracking
New forecast layout! Learn more

10-Day Weather Forecast

Advertisements
Track Severe Weather on mobile